createdAt,value
2022-11-15T00:01:18.161Z,1.10
2022-11-15T00:04:04.196Z,1.30
2022-11-15T00:06:49.959Z,1.40
2022-11-15T00:09:35.644Z,1.10
2022-11-15T00:12:20.850Z,1.30
2022-11-15T00:15:07.065Z,1.63
2022-11-15T00:17:52.433Z,1.00
2022-11-15T00:20:38.298Z,1.30
2022-11-15T00:23:24.010Z,1.20
2022-11-15T00:26:14.021Z,1.13
2022-11-15T00:28:59.823Z,1.50
2022-11-15T00:31:45.435Z,1.05
2022-11-15T00:34:30.804Z,1.57
2022-11-15T00:37:16.590Z,1.00
2022-11-15T00:40:02.221Z,1.10
2022-11-15T00:42:47.939Z,1.23
2022-11-15T00:45:33.221Z,0.90
2022-11-15T00:48:18.491Z,1.50
2022-11-15T00:51:04.271Z,1.10
2022-11-15T00:53:49.684Z,1.10
2022-11-15T00:56:35.355Z,1.50
2022-11-15T00:59:21.116Z,1.40
2022-11-15T01:02:06.440Z,1.27
2022-11-15T01:04:52.087Z,1.20
2022-11-15T01:07:37.540Z,1.20
2022-11-15T01:10:24.043Z,1.07
2022-11-15T01:13:09.771Z,1.50
2022-11-15T01:15:55.400Z,1.30
2022-11-15T01:18:42.106Z,1.50
2022-11-15T01:21:28.100Z,2.25
2022-11-15T01:24:14.322Z,1.20
2022-11-15T01:26:59.883Z,1.27
2022-11-15T01:29:45.252Z,1.10
2022-11-15T01:32:31.095Z,1.40
2022-11-15T01:35:16.836Z,1.53
2022-11-15T01:38:02.312Z,1.33
2022-11-15T01:40:48.279Z,1.30
2022-11-15T01:43:36.500Z,1.23
2022-11-15T01:46:36.356Z,1.23
2022-11-15T01:49:23.840Z,1.47
2022-11-15T01:52:15.034Z,1.30
2022-11-15T01:55:06.666Z,1.20
2022-11-15T01:57:56.586Z,1.30
2022-11-15T02:00:42.759Z,1.10
2022-11-15T02:03:36.679Z,1.37
2022-11-15T02:06:23.446Z,1.20
2022-11-15T02:09:08.942Z,1.20
2022-11-15T02:11:56.359Z,1.37
2022-11-15T02:14:45.633Z,1.40
2022-11-15T02:18:03.609Z,1.27
2022-11-15T02:21:04.134Z,1.30
2022-11-15T02:24:03.321Z,1.20
2022-11-15T02:27:03.819Z,1.40
2022-11-15T02:30:19.847Z,1.23
2022-11-15T02:33:11.934Z,1.67
2022-11-15T02:36:18.934Z,1.10
2022-11-15T02:39:09.659Z,2.30
2022-11-15T02:42:05.223Z,1.10
2022-11-15T02:44:51.849Z,1.30
2022-11-15T02:47:44.162Z,1.17
2022-11-15T02:50:31.342Z,1.60
2022-11-15T02:53:16.877Z,1.42
2022-11-15T02:56:02.652Z,1.57
2022-11-15T02:59:19.731Z,1.30
2022-11-15T03:02:15.963Z,1.77
2022-11-15T03:05:16.811Z,1.93
2022-11-15T03:08:09.388Z,2.07
2022-11-15T03:11:11.073Z,1.50
2022-11-15T03:14:01.595Z,1.80
2022-11-15T03:16:58.354Z,1.90
2022-11-15T03:19:49.470Z,1.53
2022-11-15T03:22:39.528Z,1.57
2022-11-15T03:25:28.069Z,1.70
2022-11-15T03:28:48.228Z,1.33
2022-11-15T03:31:50.908Z,1.50
2022-11-15T03:34:45.699Z,1.20
2022-11-15T03:37:39.095Z,1.37
2022-11-15T03:40:32.217Z,2.40
2022-11-15T03:43:48.351Z,1.57
2022-11-15T03:46:55.095Z,2.00
2022-11-15T03:49:47.046Z,1.70
2022-11-15T03:52:34.832Z,2.33
2022-11-15T03:55:22.037Z,1.87
2022-11-15T03:58:07.858Z,1.55
2022-11-15T04:00:53.526Z,3.13
2022-11-15T04:03:39.527Z,1.40
2022-11-15T04:06:25.081Z,1.87
2022-11-15T04:09:10.614Z,1.60
2022-11-15T04:11:56.102Z,2.00
2022-11-15T04:15:01.111Z,1.50
2022-11-15T04:17:48.488Z,1.50
2022-11-15T04:20:52.637Z,1.48
2022-11-15T04:23:57.198Z,1.17
2022-11-15T04:26:43.131Z,1.20
2022-11-15T04:29:37.963Z,1.33
2022-11-15T04:32:23.831Z,1.67
2022-11-15T04:35:10.291Z,1.30
2022-11-15T04:37:57.149Z,2.00
2022-11-15T04:40:42.609Z,1.65
2022-11-15T04:43:28.219Z,1.47
2022-11-15T04:46:13.396Z,1.60
2022-11-15T04:48:59.461Z,1.87
2022-11-15T04:51:45.743Z,1.50
2022-11-15T04:54:31.130Z,1.57
2022-11-15T04:57:17.011Z,1.53
2022-11-15T05:00:07.785Z,1.80
2022-11-15T05:03:11.924Z,1.60
2022-11-15T05:05:58.621Z,1.90
2022-11-15T05:08:43.898Z,1.85
2022-11-15T05:11:29.138Z,2.10
2022-11-15T05:14:15.363Z,1.33
2022-11-15T05:17:01.389Z,1.60
2022-11-15T05:19:46.596Z,1.50
2022-11-15T05:22:31.934Z,1.77
2022-11-15T05:25:17.398Z,1.90
2022-11-15T05:28:02.940Z,1.97
2022-11-15T05:30:48.753Z,1.63
2022-11-15T05:33:36.341Z,1.40
2022-11-15T05:36:40.577Z,2.07
2022-11-15T05:39:27.097Z,1.60
2022-11-15T05:42:16.925Z,1.50
2022-11-15T05:45:05.948Z,2.33
2022-11-15T05:47:52.640Z,2.23
2022-11-15T05:50:42.448Z,2.13
2022-11-15T05:53:28.143Z,1.83
2022-11-15T05:56:13.813Z,2.00
2022-11-15T05:59:00.282Z,1.53
2022-11-15T06:01:47.024Z,1.55
2022-11-15T06:04:32.527Z,2.17
2022-11-15T06:07:18.520Z,1.60
2022-11-15T06:10:04.570Z,1.57
2022-11-15T06:12:58.252Z,1.87
2022-11-15T06:15:43.565Z,1.60
2022-11-15T06:18:29.145Z,1.90
2022-11-15T06:21:14.740Z,1.50
2022-11-15T06:24:00.000Z,1.33
2022-11-15T06:26:45.250Z,2.00
2022-11-15T06:29:30.440Z,2.67
2022-11-15T06:32:16.187Z,1.70
2022-11-15T06:35:01.529Z,1.50
2022-11-15T06:37:47.313Z,1.63
2022-11-15T06:40:38.570Z,1.80
2022-11-15T06:43:24.478Z,1.80
2022-11-15T06:46:10.586Z,1.63
2022-11-15T06:48:56.124Z,1.90
2022-11-15T06:51:41.623Z,1.80
2022-11-15T06:54:27.368Z,1.90
2022-11-15T06:57:12.984Z,2.40
2022-11-15T06:59:58.260Z,2.07
2022-11-15T07:02:43.867Z,2.40
2022-11-15T07:05:29.748Z,1.63
2022-11-15T07:08:15.456Z,2.20
2022-11-15T07:11:03.687Z,2.00
2022-11-15T07:13:49.390Z,3.10
2022-11-15T07:16:34.854Z,2.40
2022-11-15T07:19:20.334Z,2.43
2022-11-15T07:22:06.289Z,2.67
2022-11-15T07:24:52.023Z,1.80
2022-11-15T07:27:38.076Z,2.10
2022-11-15T07:30:24.155Z,6.50
2022-11-15T07:33:09.733Z,2.10
2022-11-15T07:35:59.319Z,2.07
2022-11-15T07:38:44.945Z,2.33
2022-11-15T07:41:31.081Z,2.10
2022-11-15T07:44:16.688Z,1.83
2022-11-15T07:47:02.056Z,2.20
2022-11-15T07:49:48.128Z,1.67
2022-11-15T07:52:33.444Z,2.03
2022-11-15T07:55:19.115Z,2.17
2022-11-15T07:58:07.110Z,2.25
2022-11-15T08:00:52.526Z,2.67
2022-11-15T08:03:38.501Z,2.60
2022-11-15T08:06:24.083Z,2.50
2022-11-15T08:09:09.457Z,2.87
2022-11-15T08:11:55.076Z,2.13
2022-11-15T08:14:40.778Z,2.60
2022-11-15T08:17:27.343Z,2.72
2022-11-15T08:20:12.899Z,2.67
2022-11-15T08:23:00.126Z,2.42
2022-11-15T08:28:32.944Z,3.65
2022-11-15T08:31:19.449Z,2.45
2022-11-15T08:34:05.669Z,2.80
2022-11-15T08:36:51.313Z,3.00
2022-11-15T08:39:36.593Z,2.35
2022-11-15T08:42:22.258Z,2.55
2022-11-15T08:45:09.500Z,2.70
2022-11-15T08:50:40.950Z,2.58
2022-11-15T08:53:26.834Z,2.30
2022-11-15T08:56:14.176Z,2.60
2022-11-15T08:59:01.006Z,2.90
2022-11-15T09:01:46.809Z,2.27
2022-11-15T09:04:33.087Z,3.30
2022-11-15T09:07:19.258Z,3.25
2022-11-15T09:10:05.449Z,2.20
2022-11-15T09:12:50.652Z,2.40
2022-11-15T09:15:36.448Z,3.08
2022-11-15T09:18:23.779Z,2.67
2022-11-15T09:21:10.338Z,2.83
2022-11-15T09:23:56.262Z,1.95
2022-11-15T09:26:42.163Z,2.60
2022-11-15T09:29:29.848Z,2.13
2022-11-15T09:35:00.393Z,2.63
2022-11-15T09:37:46.715Z,2.33
2022-11-15T09:40:33.720Z,2.23
2022-11-15T09:43:27.866Z,1.90
2022-11-15T09:46:19.688Z,2.30
2022-11-15T09:52:12.198Z,2.55
2022-11-15T09:54:56.599Z,2.87
2022-11-15T09:58:01.978Z,2.60
2022-11-15T10:00:46.481Z,2.70
2022-11-15T10:03:37.536Z,2.10
2022-11-15T10:06:06.514Z,2.10
2022-11-15T10:08:56.601Z,2.60
2022-11-15T10:11:37.251Z,2.37
2022-11-15T10:14:19.758Z,2.35
2022-11-15T10:17:15.405Z,2.35
2022-11-15T10:19:42.392Z,2.05
2022-11-15T10:22:30.385Z,2.13
2022-11-15T10:25:14.577Z,2.65
2022-11-15T10:27:44.358Z,1.80
2022-11-15T10:30:14.705Z,3.13
2022-11-15T10:32:44.098Z,2.53
2022-11-15T10:35:21.689Z,3.08
2022-11-15T10:37:48.946Z,2.33
2022-11-15T10:40:17.823Z,2.63
2022-11-15T10:42:44.921Z,2.60
2022-11-15T10:45:27.795Z,2.50
2022-11-15T10:47:55.069Z,2.47
2022-11-15T10:50:31.194Z,2.13
2022-11-15T10:52:59.445Z,2.40
2022-11-15T10:55:30.098Z,2.53
2022-11-15T10:58:07.663Z,2.43
2022-11-15T11:00:39.634Z,2.50
2022-11-15T11:03:29.270Z,2.50
2022-11-15T11:06:06.613Z,2.57
2022-11-15T11:08:35.136Z,3.03
2022-11-15T11:11:04.208Z,3.13
2022-11-15T11:13:39.403Z,2.93
2022-11-15T11:16:15.148Z,2.73
2022-11-15T11:19:09.947Z,2.33
2022-11-15T11:21:50.795Z,2.77
2022-11-15T11:24:27.222Z,2.33
2022-11-15T11:27:39.135Z,3.10
2022-11-15T11:30:08.937Z,2.80
2022-11-15T11:32:35.838Z,3.50
2022-11-15T11:35:23.811Z,2.93
2022-11-15T11:38:10.874Z,3.33
2022-11-15T11:41:21.453Z,2.88
2022-11-15T11:44:03.650Z,3.23
2022-11-15T11:46:43.532Z,2.50
2022-11-15T11:49:16.600Z,2.83
2022-11-15T11:52:00.000Z,2.37
2022-11-15T11:54:38.155Z,2.70
2022-11-15T11:57:13.845Z,2.40
2022-11-15T11:59:58.273Z,2.90
2022-11-15T12:02:42.729Z,2.43
2022-11-15T12:05:46.402Z,2.53
2022-11-15T12:08:25.666Z,2.50
2022-11-15T12:11:18.780Z,3.00
2022-11-15T12:13:49.949Z,3.47
2022-11-15T12:16:32.178Z,2.90
2022-11-15T12:19:04.766Z,3.37
2022-11-15T12:21:49.730Z,2.93
2022-11-15T12:24:25.847Z,2.83
2022-11-15T12:26:58.988Z,2.10
2022-11-15T12:29:40.202Z,2.60
2022-11-15T12:32:39.108Z,2.73
2022-11-15T12:35:24.186Z,2.70
2022-11-15T12:37:56.624Z,4.60
2022-11-15T12:40:38.507Z,2.63
2022-11-15T12:43:14.273Z,3.53
2022-11-15T12:45:46.404Z,3.60
2022-11-15T12:48:19.477Z,3.40
2022-11-15T12:50:55.402Z,3.30
2022-11-15T12:53:28.774Z,2.72
2022-11-15T12:56:14.143Z,3.27
2022-11-15T12:58:49.686Z,3.50
2022-11-15T13:01:42.418Z,3.63
2022-11-15T13:04:30.267Z,3.47
2022-11-15T13:07:02.005Z,2.77
2022-11-15T13:09:34.922Z,3.00
2022-11-15T13:12:04.897Z,3.37
2022-11-15T13:14:52.341Z,3.10
2022-11-15T13:17:31.408Z,3.10
2022-11-15T13:20:03.182Z,3.00
2022-11-15T13:22:53.394Z,3.40
2022-11-15T13:25:35.681Z,3.47
2022-11-15T13:28:17.809Z,3.33
2022-11-15T13:30:47.708Z,3.73
2022-11-15T13:33:24.929Z,3.50
2022-11-15T13:35:55.745Z,4.23
2022-11-15T13:38:25.672Z,3.87
2022-11-15T13:40:52.532Z,3.20
2022-11-15T13:43:22.527Z,3.47
2022-11-15T13:46:18.477Z,3.23
2022-11-15T13:48:48.129Z,3.90
2022-11-15T13:51:18.353Z,3.40
2022-11-15T13:53:52.472Z,3.23
2022-11-15T13:56:20.947Z,3.63
2022-11-15T13:58:48.467Z,3.63
2022-11-15T14:01:20.778Z,3.23
2022-11-15T14:04:00.584Z,3.30
2022-11-15T14:06:30.891Z,3.47
2022-11-15T14:09:10.056Z,3.47
2022-11-15T14:11:37.118Z,3.73
2022-11-15T14:14:10.138Z,3.20
2022-11-15T14:16:45.773Z,2.97
2022-11-15T14:19:34.735Z,4.47
2022-11-15T14:22:22.162Z,3.90
2022-11-15T14:27:34.949Z,3.93
2022-11-15T14:30:02.027Z,3.47
2022-11-15T14:32:43.919Z,3.83
2022-11-15T14:35:16.771Z,3.97
2022-11-15T14:37:43.980Z,4.33
2022-11-15T14:40:15.634Z,4.23
2022-11-15T14:42:43.545Z,3.30
2022-11-15T14:45:19.101Z,3.70
2022-11-15T14:47:46.487Z,3.13
2022-11-15T14:50:23.039Z,2.57
2022-11-15T14:52:50.323Z,3.00
2022-11-15T14:55:26.580Z,3.90
2022-11-15T14:57:56.247Z,3.45
2022-11-15T15:00:23.512Z,3.33
2022-11-15T15:02:53.715Z,4.17
2022-11-15T15:05:27.839Z,4.10
2022-11-15T15:07:54.935Z,4.00
2022-11-15T15:10:39.444Z,4.00
2022-11-15T15:13:14.851Z,4.00
2022-11-15T15:15:41.809Z,4.77
2022-11-15T15:18:09.704Z,5.33
2022-11-15T15:20:39.407Z,5.00
2022-11-15T15:23:06.551Z,4.97
2022-11-15T15:25:35.992Z,5.20
2022-11-15T15:28:03.299Z,5.23
2022-11-15T15:30:31.505Z,5.57
2022-11-15T15:32:58.842Z,4.97
2022-11-15T15:35:30.498Z,5.53
2022-11-15T15:37:57.735Z,5.57
2022-11-15T15:40:26.449Z,4.90
2022-11-15T15:42:53.379Z,5.40
2022-11-15T15:45:20.493Z,5.67
2022-11-15T15:47:48.065Z,4.90
2022-11-15T15:50:29.955Z,5.50
2022-11-15T15:52:59.273Z,5.47
2022-11-15T15:55:27.055Z,5.03
2022-11-15T15:57:54.275Z,4.97
2022-11-15T16:00:24.191Z,4.03
2022-11-15T16:02:51.678Z,4.40
2022-11-15T16:05:19.221Z,4.47
2022-11-15T16:07:47.556Z,3.63
2022-11-15T16:10:26.394Z,5.07
2022-11-15T16:12:54.398Z,4.83
2022-11-15T16:15:23.222Z,5.17
2022-11-15T16:17:55.482Z,4.93
2022-11-15T16:20:33.114Z,5.50
2022-11-15T16:23:05.805Z,6.70
2022-11-15T16:25:40.985Z,6.33
2022-11-15T16:28:21.719Z,6.80
2022-11-15T16:30:53.844Z,6.57
2022-11-15T16:33:23.790Z,7.80
2022-11-15T16:35:50.855Z,6.67
2022-11-15T16:38:18.750Z,6.90
2022-11-15T16:40:46.180Z,7.03
2022-11-15T16:43:13.063Z,7.83
2022-11-15T16:45:40.138Z,7.03
2022-11-15T16:48:07.172Z,7.50
2022-11-15T16:50:41.633Z,6.87
2022-11-15T16:53:08.602Z,6.67
2022-11-15T16:55:35.511Z,7.37
2022-11-15T16:58:02.540Z,7.37
2022-11-15T17:00:29.640Z,7.23
2022-11-15T17:02:57.914Z,7.53
2022-11-15T17:05:27.439Z,8.73
2022-11-15T17:07:54.435Z,8.07
2022-11-15T17:10:22.953Z,6.77
2022-11-15T17:12:50.949Z,7.07
2022-11-15T17:15:18.349Z,6.53
2022-11-15T17:17:51.161Z,5.80
2022-11-15T17:20:19.904Z,7.00
2022-11-15T17:22:47.468Z,6.77
2022-11-15T17:25:14.851Z,6.53
2022-11-15T17:27:41.884Z,6.40
2022-11-15T17:30:10.491Z,6.47
2022-11-15T17:32:38.110Z,6.47
2022-11-15T17:35:14.906Z,5.90
2022-11-15T17:37:42.417Z,6.10
2022-11-15T17:40:09.900Z,6.53
2022-11-15T17:42:37.024Z,6.20
2022-11-15T17:45:09.556Z,6.43
2022-11-15T17:47:37.510Z,6.23
2022-11-15T17:50:04.791Z,6.50
2022-11-15T17:52:31.806Z,6.33
2022-11-15T17:54:58.868Z,6.03
2022-11-15T17:57:25.784Z,6.30
2022-11-15T17:59:52.707Z,6.10
2022-11-15T18:02:19.706Z,6.13
2022-11-15T18:04:46.583Z,5.70
2022-11-15T18:07:14.354Z,6.00
2022-11-15T18:09:44.199Z,6.30
2022-11-15T18:12:12.200Z,7.47
2022-11-15T18:14:39.513Z,6.57
2022-11-15T18:17:06.600Z,6.67
2022-11-15T18:19:33.913Z,6.50
2022-11-15T18:22:01.854Z,6.83
2022-11-15T18:24:38.531Z,6.70
2022-11-15T18:27:06.609Z,7.25
2022-11-15T18:29:37.696Z,7.47
2022-11-15T18:32:11.728Z,6.27
2022-11-15T18:34:39.112Z,6.60
2022-11-15T18:37:06.325Z,6.80
2022-11-15T18:39:33.364Z,7.50
2022-11-15T18:42:00.492Z,7.10
2022-11-15T18:44:30.208Z,7.60
2022-11-15T18:46:57.593Z,7.60
2022-11-15T18:49:24.503Z,7.40
2022-11-15T18:51:51.527Z,8.03
2022-11-15T18:54:18.445Z,7.50
2022-11-15T18:56:45.993Z,7.80
2022-11-15T18:59:16.287Z,7.40
2022-11-15T19:01:48.006Z,7.67
2022-11-15T19:04:18.670Z,7.23
2022-11-15T19:06:48.818Z,7.73
2022-11-15T19:09:17.831Z,7.60
2022-11-15T19:11:46.588Z,7.80
2022-11-15T19:14:16.897Z,8.37
2022-11-15T19:16:52.409Z,8.47
2022-11-15T19:19:22.124Z,8.55
2022-11-15T19:21:49.404Z,7.77
2022-11-15T19:24:16.468Z,7.73
2022-11-15T19:26:47.136Z,8.50
2022-11-15T19:29:14.399Z,8.10
2022-11-15T19:31:42.338Z,7.43
2022-11-15T19:34:10.569Z,7.67
2022-11-15T19:36:40.772Z,7.00
2022-11-15T19:39:11.964Z,7.70
2022-11-15T19:41:44.065Z,7.30
2022-11-15T19:44:12.624Z,7.13
2022-11-15T19:46:40.406Z,7.10
2022-11-15T19:49:10.506Z,7.07
2022-11-15T19:51:39.087Z,7.43
2022-11-15T19:54:08.884Z,6.70
2022-11-15T19:56:37.233Z,7.23
2022-11-15T19:59:05.286Z,7.07
2022-11-15T20:01:36.396Z,7.60
2022-11-15T20:04:04.153Z,6.70
2022-11-15T20:06:34.071Z,6.40
2022-11-15T20:09:01.387Z,6.30
2022-11-15T20:11:28.541Z,5.97
2022-11-15T20:14:01.931Z,5.70
2022-11-15T20:16:29.568Z,6.33
2022-11-15T20:18:56.633Z,5.93
2022-11-15T20:21:23.922Z,6.13
2022-11-15T20:23:51.911Z,6.37
2022-11-15T20:26:20.352Z,6.80
2022-11-15T20:28:48.309Z,7.03
2022-11-15T20:31:16.439Z,5.97
2022-11-15T20:33:43.630Z,6.83
2022-11-15T20:36:13.123Z,5.50
2022-11-15T20:38:40.100Z,6.47
2022-11-15T20:41:07.814Z,6.93
2022-11-15T20:43:35.059Z,6.43
2022-11-15T20:46:02.074Z,7.30
2022-11-15T20:48:29.196Z,6.90
2022-11-15T20:51:12.497Z,8.33
2022-11-15T20:53:43.793Z,7.67
2022-11-15T20:56:16.860Z,8.23
2022-11-15T20:58:45.904Z,9.00
2022-11-15T21:01:15.723Z,8.97
2022-11-15T21:03:42.843Z,8.77
2022-11-15T21:06:11.747Z,9.23
2022-11-15T21:08:57.543Z,9.10
2022-11-15T21:11:43.946Z,9.77
2022-11-15T21:14:11.171Z,10.43
2022-11-15T21:16:39.665Z,13.20
2022-11-15T21:19:07.033Z,13.13
2022-11-15T21:21:35.789Z,12.77
2022-11-15T21:24:07.764Z,14.17
2022-11-15T21:26:36.009Z,15.27
2022-11-15T21:29:03.754Z,15.27
2022-11-15T21:31:32.069Z,15.20
2022-11-15T21:34:02.435Z,15.70
2022-11-15T21:36:29.826Z,15.80
2022-11-15T21:38:56.804Z,17.17
2022-11-15T21:41:23.770Z,16.20
2022-11-15T21:43:50.834Z,16.03
2022-11-15T21:46:17.703Z,16.10
2022-11-15T21:48:44.634Z,16.97
2022-11-15T21:51:11.941Z,14.90
2022-11-15T21:53:39.338Z,15.80
2022-11-15T21:56:07.086Z,14.50
2022-11-15T21:58:34.787Z,13.73
2022-11-15T22:01:20.501Z,14.80
2022-11-15T22:03:47.771Z,12.87
2022-11-15T22:06:17.984Z,12.43
2022-11-15T22:08:46.406Z,14.03
2022-11-15T22:11:14.735Z,12.67
2022-11-15T22:13:42.174Z,11.57
2022-11-15T22:16:10.191Z,11.20
2022-11-15T22:18:38.060Z,12.67
2022-11-15T22:21:07.748Z,11.30
2022-11-15T22:23:35.311Z,9.63
2022-11-15T22:26:02.897Z,9.33
2022-11-15T22:28:31.086Z,9.33
2022-11-15T22:31:00.172Z,9.83
2022-11-15T22:33:29.678Z,9.27
2022-11-15T22:35:56.929Z,9.40
2022-11-15T22:38:24.339Z,9.13
2022-11-15T22:40:51.332Z,9.23
2022-11-15T22:43:20.438Z,9.00
2022-11-15T22:45:57.537Z,8.97
2022-11-15T22:48:28.825Z,10.10
2022-11-15T22:50:56.271Z,8.50
2022-11-15T22:53:23.996Z,8.83
2022-11-15T22:55:56.307Z,9.40
2022-11-15T22:58:26.983Z,9.20
2022-11-15T23:00:56.821Z,8.73
2022-11-15T23:03:25.354Z,8.37
2022-11-15T23:05:52.888Z,8.87
2022-11-15T23:08:20.264Z,8.33
2022-11-15T23:11:05.877Z,9.60
2022-11-15T23:13:33.837Z,8.90
2022-11-15T23:16:25.933Z,9.47
2022-11-15T23:19:13.359Z,9.50
2022-11-15T23:22:01.192Z,8.25
2022-11-15T23:24:28.855Z,8.57
2022-11-15T23:27:01.712Z,8.43
2022-11-15T23:29:29.792Z,9.77
2022-11-15T23:32:16.019Z,9.43
2022-11-15T23:34:45.794Z,8.77
2022-11-15T23:37:15.338Z,9.97
2022-11-15T23:39:42.497Z,9.53
2022-11-15T23:42:19.775Z,10.30
2022-11-15T23:44:50.027Z,10.03
2022-11-15T23:47:18.763Z,10.13
2022-11-15T23:49:47.288Z,10.37
2022-11-15T23:52:15.724Z,9.90
2022-11-15T23:54:43.031Z,11.17
2022-11-15T23:57:12.129Z,11.70
2022-11-15T23:59:40.254Z,11.77
